RYR13MM EHBK-EPMO
Flight info
| Callsign | RYR13MM |
|---|---|
| Flight time | 1h 26m |
| Altitude | 37000 |
| Route | NVO3A NVO DCT TOLTA DCT LARET DCT DESAR N858 SUBIX L980 KELOD DCT OBOKU DCT DOSIX |
| Aircraft | B738/M-VGDW/C |
Departure
| Time | 2026-05-08 05:31 |
|---|---|
| Airport | Maastricht Aachen Airport (EHBK) |
Arrival
| Time | 2026-05-08 06:57 |
|---|---|
| Airport | Warsaw Modlin Airport (EPMO) |
| Time | Latitude | Longitude | Altitude | Speed | Heading |
|---|---|---|---|---|---|
| 2026-05-08 05:22 | 50.91337 | 5.76865 | 383 ft | 0 kts | 254° |
| 2026-05-08 05:24 | 50.91334 | 5.76857 | 383 ft | 2 kts | 242° |
| 2026-05-08 05:24 | 50.91313 | 5.76836 | 383 ft | 5 kts | 211° |
| 2026-05-08 05:25 | 50.91280 | 5.76804 | 383 ft | 6 kts | 213° |
| 2026-05-08 05:25 | 50.91240 | 5.76763 | 382 ft | 7 kts | 213° |
| 2026-05-08 05:25 | 50.91193 | 5.76733 | 382 ft | 8 kts | 171° |
| 2026-05-08 05:25 | 50.91158 | 5.76796 | 382 ft | 8 kts | 121° |
| 2026-05-08 05:26 | 50.91121 | 5.76879 | 381 ft | 10 kts | 137° |
| 2026-05-08 05:26 | 50.91053 | 5.76883 | 381 ft | 11 kts | 210° |
| 2026-05-08 05:26 | 50.90992 | 5.76823 | 381 ft | 10 kts | 212° |
| 2026-05-08 05:26 | 50.90929 | 5.76762 | 381 ft | 11 kts | 212° |
| 2026-05-08 05:27 | 50.90861 | 5.76691 | 382 ft | 12 kts | 213° |
| 2026-05-08 05:27 | 50.90792 | 5.76621 | 383 ft | 12 kts | 213° |
| 2026-05-08 05:27 | 50.90722 | 5.76550 | 384 ft | 13 kts | 212° |
| 2026-05-08 05:27 | 50.90647 | 5.76474 | 385 ft | 13 kts | 212° |
| 2026-05-08 05:28 | 50.90570 | 5.76397 | 385 ft | 14 kts | 212° |
| 2026-05-08 05:28 | 50.90482 | 5.76308 | 383 ft | 16 kts | 212° |
| 2026-05-08 05:28 | 50.90384 | 5.76209 | 383 ft | 18 kts | 213° |
| 2026-05-08 05:28 | 50.90284 | 5.76105 | 382 ft | 16 kts | 212° |
| 2026-05-08 05:29 | 50.90192 | 5.76013 | 382 ft | 16 kts | 212° |
| 2026-05-08 05:29 | 50.90108 | 5.75927 | 383 ft | 14 kts | 213° |
| 2026-05-08 05:29 | 50.90070 | 5.75835 | 384 ft | 9 kts | 258° |
| 2026-05-08 05:29 | 50.90038 | 5.75772 | 384 ft | 8 kts | 185° |
| 2026-05-08 05:30 | 50.90014 | 5.75837 | 385 ft | 8 kts | 72° |
| 2026-05-08 05:30 | 50.90061 | 5.75881 | 384 ft | 6 kts | 29° |
| 2026-05-08 05:30 | 50.90072 | 5.75893 | 384 ft | 0 kts | 34° |
| 2026-05-08 05:30 | 50.90073 | 5.75893 | 384 ft | 0 kts | 34° |
| 2026-05-08 05:31 | 50.90161 | 5.75985 | 382 ft | 47 kts | 33° |
| 2026-05-08 05:31 | 50.90660 | 5.76489 | 384 ft | 120 kts | 32° |
| 2026-05-08 05:31 | 50.91537 | 5.77372 | 506 ft | 168 kts | 33° |
| 2026-05-08 05:31 | 50.92532 | 5.78441 | 1266 ft | 177 kts | 38° |
| 2026-05-08 05:32 | 50.93352 | 5.79916 | 2139 ft | 183 kts | 59° |
| 2026-05-08 05:32 | 50.93858 | 5.81773 | 2997 ft | 181 kts | 68° |
| 2026-05-08 05:32 | 50.94284 | 5.83599 | 3818 ft | 183 kts | 75° |
| 2026-05-08 05:32 | 50.94115 | 5.85714 | 4094 ft | 212 kts | 118° |
| 2026-05-08 05:33 | 50.92957 | 5.87297 | 4306 ft | 236 kts | 156° |
| 2026-05-08 05:33 | 50.91371 | 5.88224 | 4778 ft | 247 kts | 159° |
| 2026-05-08 05:33 | 50.89684 | 5.89238 | 5139 ft | 268 kts | 158° |
| 2026-05-08 05:33 | 50.87930 | 5.90347 | 5917 ft | 273 kts | 158° |
| 2026-05-08 05:34 | 50.86161 | 5.91495 | 6780 ft | 275 kts | 157° |
| 2026-05-08 05:34 | 50.84379 | 5.92663 | 7567 ft | 279 kts | 157° |
| 2026-05-08 05:34 | 50.82724 | 5.94264 | 8307 ft | 283 kts | 134° |
| 2026-05-08 05:34 | 50.81714 | 5.96922 | 9065 ft | 286 kts | 105° |
| 2026-05-08 05:35 | 50.81527 | 6.00012 | 9838 ft | 289 kts | 87° |
| 2026-05-08 05:35 | 50.81654 | 6.03215 | 10448 ft | 298 kts | 85° |
| 2026-05-08 05:35 | 50.81815 | 6.06619 | 10632 ft | 322 kts | 86° |
| 2026-05-08 05:35 | 50.81910 | 6.10293 | 10810 ft | 345 kts | 88° |
| 2026-05-08 05:36 | 50.81951 | 6.14190 | 11099 ft | 362 kts | 89° |
| 2026-05-08 05:36 | 50.81976 | 6.18217 | 11687 ft | 369 kts | 89° |
| 2026-05-08 05:36 | 50.81999 | 6.22294 | 12396 ft | 372 kts | 89° |
| 2026-05-08 05:36 | 50.82025 | 6.26404 | 13085 ft | 376 kts | 89° |
| 2026-05-08 05:37 | 50.82054 | 6.30572 | 13760 ft | 381 kts | 89° |
| 2026-05-08 05:37 | 50.82085 | 6.34791 | 14404 ft | 385 kts | 89° |
| 2026-05-08 05:37 | 50.82116 | 6.39037 | 15041 ft | 388 kts | 89° |
| 2026-05-08 05:37 | 50.82146 | 6.43314 | 15673 ft | 390 kts | 89° |
| 2026-05-08 05:38 | 50.82175 | 6.47576 | 16283 ft | 394 kts | 89° |
| 2026-05-08 05:38 | 50.82204 | 6.51928 | 16888 ft | 397 kts | 89° |
| 2026-05-08 05:38 | 50.82231 | 6.56323 | 17491 ft | 401 kts | 89° |
| 2026-05-08 05:38 | 50.82258 | 6.60749 | 18087 ft | 404 kts | 88° |
| 2026-05-08 05:39 | 50.82687 | 6.65042 | 18579 ft | 408 kts | 70° |
| 2026-05-08 05:39 | 50.83880 | 6.69119 | 19122 ft | 409 kts | 63° |
| 2026-05-08 05:39 | 50.85168 | 6.73106 | 19626 ft | 412 kts | 62° |
| 2026-05-08 05:39 | 50.86487 | 6.77159 | 20104 ft | 416 kts | 62° |
| 2026-05-08 05:40 | 50.87814 | 6.81251 | 20575 ft | 419 kts | 62° |
| 2026-05-08 05:40 | 50.89144 | 6.85386 | 21072 ft | 422 kts | 62° |
| 2026-05-08 05:40 | 50.90473 | 6.89555 | 21553 ft | 425 kts | 63° |
| 2026-05-08 05:40 | 50.91805 | 6.93759 | 22027 ft | 428 kts | 63° |
| 2026-05-08 05:41 | 50.92691 | 6.96567 | 22331 ft | 430 kts | 63° |
| 2026-05-08 05:41 | 50.94034 | 7.00836 | 22778 ft | 434 kts | 63° |
| 2026-05-08 05:41 | 50.95821 | 7.06536 | 23370 ft | 437 kts | 63° |
| 2026-05-08 05:41 | 50.96739 | 7.09468 | 23664 ft | 440 kts | 63° |
| 2026-05-08 05:42 | 50.98105 | 7.13842 | 24032 ft | 442 kts | 63° |
| 2026-05-08 05:42 | 50.99456 | 7.18172 | 24403 ft | 444 kts | 63° |
| 2026-05-08 05:42 | 51.00829 | 7.22582 | 24788 ft | 446 kts | 63° |
| 2026-05-08 05:42 | 51.02205 | 7.27011 | 25149 ft | 449 kts | 63° |
| 2026-05-08 05:43 | 51.03590 | 7.31474 | 25493 ft | 451 kts | 63° |
| 2026-05-08 05:43 | 51.04978 | 7.35956 | 25838 ft | 453 kts | 63° |
| 2026-05-08 05:43 | 51.06373 | 7.40468 | 26176 ft | 456 kts | 63° |
| 2026-05-08 05:43 | 51.07775 | 7.45010 | 26523 ft | 458 kts | 63° |
| 2026-05-08 05:44 | 51.09181 | 7.49573 | 26849 ft | 460 kts | 63° |
| 2026-05-08 05:44 | 51.10594 | 7.54169 | 27157 ft | 463 kts | 63° |
| 2026-05-08 05:44 | 51.11996 | 7.58740 | 27472 ft | 464 kts | 63° |
| 2026-05-08 05:44 | 51.13416 | 7.63376 | 27785 ft | 466 kts | 63° |
| 2026-05-08 05:45 | 51.14839 | 7.68030 | 28078 ft | 469 kts | 63° |
| 2026-05-08 05:45 | 51.16267 | 7.72712 | 28371 ft | 471 kts | 63° |
| 2026-05-08 05:45 | 51.17703 | 7.77426 | 28669 ft | 473 kts | 63° |
| 2026-05-08 05:45 | 51.19138 | 7.82148 | 28943 ft | 475 kts | 64° |
| 2026-05-08 05:46 | 51.20579 | 7.86897 | 29267 ft | 475 kts | 64° |
| 2026-05-08 05:46 | 51.21999 | 7.91588 | 29696 ft | 474 kts | 64° |
| 2026-05-08 05:46 | 51.23423 | 7.96302 | 30157 ft | 472 kts | 64° |
| 2026-05-08 05:46 | 51.24846 | 8.01023 | 30471 ft | 471 kts | 64° |
| 2026-05-08 05:47 | 51.26268 | 8.05746 | 30744 ft | 472 kts | 64° |
| 2026-05-08 05:47 | 51.27689 | 8.10478 | 31039 ft | 472 kts | 64° |
| 2026-05-08 05:47 | 51.29109 | 8.15213 | 31353 ft | 471 kts | 64° |
| 2026-05-08 05:47 | 51.30524 | 8.19942 | 31658 ft | 471 kts | 64° |
| 2026-05-08 05:48 | 51.31935 | 8.24667 | 31929 ft | 471 kts | 64° |
| 2026-05-08 05:48 | 51.33345 | 8.29398 | 32200 ft | 471 kts | 64° |
| 2026-05-08 05:48 | 51.34755 | 8.34137 | 32503 ft | 471 kts | 64° |
| 2026-05-08 05:48 | 51.36142 | 8.38810 | 32798 ft | 470 kts | 64° |
| 2026-05-08 05:49 | 51.37545 | 8.43544 | 33069 ft | 470 kts | 64° |
| 2026-05-08 05:49 | 51.38949 | 8.48292 | 33322 ft | 471 kts | 64° |
| 2026-05-08 05:49 | 51.40347 | 8.53030 | 33602 ft | 470 kts | 64° |
| 2026-05-08 05:49 | 51.41741 | 8.57763 | 33872 ft | 470 kts | 64° |
| 2026-05-08 05:50 | 51.43136 | 8.62509 | 34129 ft | 470 kts | 64° |
| 2026-05-08 05:50 | 51.44524 | 8.67242 | 34345 ft | 470 kts | 64° |
| 2026-05-08 05:50 | 51.45915 | 8.71990 | 34551 ft | 470 kts | 64° |
| 2026-05-08 05:50 | 51.47301 | 8.76735 | 34726 ft | 470 kts | 64° |
| 2026-05-08 05:51 | 51.48691 | 8.81502 | 34915 ft | 471 kts | 64° |
| 2026-05-08 05:51 | 51.50079 | 8.86270 | 35112 ft | 471 kts | 64° |
| 2026-05-08 05:51 | 51.51464 | 8.91040 | 35301 ft | 471 kts | 64° |
| 2026-05-08 05:51 | 51.52833 | 8.95761 | 35460 ft | 472 kts | 64° |
| 2026-05-08 05:52 | 51.54215 | 9.00539 | 35641 ft | 472 kts | 64° |
| 2026-05-08 05:52 | 51.55597 | 9.05324 | 35834 ft | 472 kts | 65° |
| 2026-05-08 05:52 | 51.56979 | 9.10122 | 36030 ft | 472 kts | 65° |
| 2026-05-08 05:52 | 51.58357 | 9.14912 | 36184 ft | 472 kts | 65° |
| 2026-05-08 05:53 | 51.59736 | 9.19721 | 36368 ft | 472 kts | 65° |
| 2026-05-08 05:53 | 51.61113 | 9.24529 | 36558 ft | 472 kts | 65° |
| 2026-05-08 05:53 | 51.62469 | 9.29272 | 36716 ft | 472 kts | 65° |
| 2026-05-08 05:53 | 51.63839 | 9.34078 | 36861 ft | 473 kts | 65° |
| 2026-05-08 05:54 | 51.65213 | 9.38901 | 37025 ft | 473 kts | 65° |
| 2026-05-08 05:54 | 51.67959 | 9.48606 | 37125 ft | 476 kts | 67° |
| 2026-05-08 05:55 | 51.69733 | 9.58839 | 37150 ft | 473 kts | 80° |
| 2026-05-08 05:55 | 51.70840 | 9.69214 | 37141 ft | 472 kts | 81° |
| 2026-05-08 05:56 | 51.71945 | 9.79661 | 37137 ft | 470 kts | 80° |
| 2026-05-08 05:56 | 51.73086 | 9.90056 | 37143 ft | 470 kts | 80° |
| 2026-05-08 05:57 | 51.74228 | 10.00364 | 37146 ft | 470 kts | 80° |
| 2026-05-08 05:57 | 51.75375 | 10.10779 | 37143 ft | 471 kts | 80° |
| 2026-05-08 05:58 | 51.76511 | 10.21209 | 37145 ft | 472 kts | 80° |
| 2026-05-08 05:58 | 51.77633 | 10.31599 | 37146 ft | 473 kts | 80° |
| 2026-05-08 05:59 | 51.78755 | 10.42099 | 37141 ft | 474 kts | 80° |
| 2026-05-08 05:59 | 51.79872 | 10.52628 | 37145 ft | 475 kts | 81° |
| 2026-05-08 06:00 | 51.80979 | 10.63166 | 37142 ft | 476 kts | 81° |
| 2026-05-08 06:00 | 51.82076 | 10.73684 | 37140 ft | 476 kts | 81° |
| 2026-05-08 06:01 | 51.83001 | 10.84288 | 37131 ft | 475 kts | 89° |
| 2026-05-08 06:01 | 51.82308 | 10.94838 | 37145 ft | 472 kts | 105° |
| 2026-05-08 06:02 | 51.80596 | 11.05100 | 37144 ft | 472 kts | 107° |
| 2026-05-08 06:02 | 51.78874 | 11.15266 | 37151 ft | 472 kts | 106° |
| 2026-05-08 06:03 | 51.77183 | 11.25497 | 37153 ft | 471 kts | 106° |
| 2026-05-08 06:03 | 51.75508 | 11.35707 | 37156 ft | 470 kts | 106° |
| 2026-05-08 06:04 | 51.73825 | 11.45922 | 37150 ft | 470 kts | 106° |
| 2026-05-08 06:04 | 51.72133 | 11.56117 | 37154 ft | 470 kts | 106° |
| 2026-05-08 06:05 | 51.70435 | 11.66283 | 37154 ft | 469 kts | 106° |
| 2026-05-08 06:05 | 51.68727 | 11.76450 | 37142 ft | 470 kts | 106° |
| 2026-05-08 06:06 | 51.67022 | 11.86545 | 37147 ft | 470 kts | 106° |
| 2026-05-08 06:06 | 51.65303 | 11.96704 | 37139 ft | 470 kts | 104° |
| 2026-05-08 06:06 | 51.64884 | 12.01930 | 37139 ft | 472 kts | 89° |
| 2026-05-08 06:07 | 51.65211 | 12.07181 | 37152 ft | 472 kts | 77° |
| 2026-05-08 06:07 | 51.66227 | 12.12189 | 37141 ft | 471 kts | 64° |
| 2026-05-08 06:07 | 51.67665 | 12.16925 | 37154 ft | 471 kts | 63° |
| 2026-05-08 06:08 | 51.70641 | 12.26359 | 37151 ft | 472 kts | 63° |
| 2026-05-08 06:08 | 51.73593 | 12.35843 | 37153 ft | 473 kts | 63° |
| 2026-05-08 06:09 | 51.76483 | 12.45338 | 37139 ft | 475 kts | 63° |
| 2026-05-08 06:09 | 51.79377 | 12.54958 | 37136 ft | 476 kts | 63° |
| 2026-05-08 06:10 | 51.82263 | 12.64602 | 37145 ft | 476 kts | 64° |
| 2026-05-08 06:10 | 51.85139 | 12.74241 | 37152 ft | 475 kts | 64° |
| 2026-05-08 06:11 | 51.87987 | 12.83822 | 37153 ft | 475 kts | 64° |
| 2026-05-08 06:11 | 51.90842 | 12.93462 | 37147 ft | 474 kts | 64° |
| 2026-05-08 06:12 | 51.93693 | 13.03130 | 37152 ft | 473 kts | 64° |
| 2026-05-08 06:12 | 51.96523 | 13.12762 | 37153 ft | 473 kts | 64° |
| 2026-05-08 06:13 | 51.99325 | 13.22338 | 37155 ft | 472 kts | 64° |
| 2026-05-08 06:13 | 52.02134 | 13.31979 | 37155 ft | 472 kts | 64° |
| 2026-05-08 06:14 | 52.04934 | 13.41628 | 37153 ft | 471 kts | 64° |
| 2026-05-08 06:14 | 52.07723 | 13.51278 | 37156 ft | 471 kts | 64° |
| 2026-05-08 06:15 | 52.10504 | 13.60938 | 37160 ft | 471 kts | 64° |
| 2026-05-08 06:15 | 52.13261 | 13.70554 | 37159 ft | 471 kts | 64° |
| 2026-05-08 06:16 | 52.16027 | 13.80242 | 37162 ft | 471 kts | 64° |
| 2026-05-08 06:16 | 52.18784 | 13.89942 | 37164 ft | 472 kts | 65° |
| 2026-05-08 06:17 | 52.22911 | 14.04530 | 37165 ft | 472 kts | 65° |
| 2026-05-08 06:17 | 52.25650 | 14.14264 | 37161 ft | 472 kts | 65° |
| 2026-05-08 06:18 | 52.28370 | 14.23972 | 37161 ft | 473 kts | 65° |
| 2026-05-08 06:18 | 52.31097 | 14.33742 | 37164 ft | 473 kts | 65° |
| 2026-05-08 06:19 | 52.33820 | 14.43538 | 37161 ft | 473 kts | 65° |
| 2026-05-08 06:19 | 52.36444 | 14.53391 | 37154 ft | 473 kts | 73° |
| 2026-05-08 06:20 | 52.37351 | 14.63978 | 37166 ft | 471 kts | 93° |
| 2026-05-08 06:20 | 52.36391 | 14.74477 | 37170 ft | 469 kts | 102° |
| 2026-05-08 06:21 | 52.35159 | 14.84984 | 37166 ft | 469 kts | 102° |
| 2026-05-08 06:21 | 52.33965 | 14.95480 | 37165 ft | 470 kts | 101° |
| 2026-05-08 06:22 | 52.32798 | 15.05997 | 37167 ft | 470 kts | 101° |
| 2026-05-08 06:22 | 52.31633 | 15.16521 | 37160 ft | 470 kts | 101° |
| 2026-05-08 06:23 | 52.30460 | 15.27004 | 37168 ft | 470 kts | 101° |
| 2026-05-08 06:23 | 52.29272 | 15.37520 | 37163 ft | 471 kts | 101° |
| 2026-05-08 06:24 | 52.28073 | 15.48040 | 37162 ft | 471 kts | 102° |
| 2026-05-08 06:24 | 52.26865 | 15.58549 | 37160 ft | 471 kts | 102° |
| 2026-05-08 06:25 | 52.25655 | 15.68995 | 37154 ft | 471 kts | 102° |
| 2026-05-08 06:25 | 52.24428 | 15.79515 | 37162 ft | 471 kts | 102° |
| 2026-05-08 06:26 | 52.23368 | 15.90073 | 37148 ft | 472 kts | 93° |
| 2026-05-08 06:26 | 52.23468 | 16.00800 | 37153 ft | 473 kts | 88° |
| 2026-05-08 06:27 | 52.23719 | 16.11446 | 37158 ft | 473 kts | 89° |
| 2026-05-08 06:27 | 52.23929 | 16.22179 | 37160 ft | 473 kts | 89° |
| 2026-05-08 06:28 | 52.24092 | 16.32914 | 37160 ft | 473 kts | 89° |
| 2026-05-08 06:28 | 52.24233 | 16.43654 | 37151 ft | 473 kts | 90° |
| 2026-05-08 06:29 | 52.24364 | 16.54336 | 37144 ft | 473 kts | 90° |
| 2026-05-08 06:29 | 52.24488 | 16.65083 | 37152 ft | 473 kts | 90° |
| 2026-05-08 06:30 | 52.24583 | 16.74014 | 37137 ft | 473 kts | 90° |
| 2026-05-08 06:30 | 52.24690 | 16.84775 | 36842 ft | 479 kts | 90° |
| 2026-05-08 06:31 | 52.24740 | 16.90230 | 36330 ft | 479 kts | 90° |
| 2026-05-08 06:31 | 52.24788 | 16.95664 | 35724 ft | 478 kts | 90° |
| 2026-05-08 06:31 | 52.24833 | 17.01083 | 35097 ft | 478 kts | 90° |
| 2026-05-08 06:31 | 52.24876 | 17.06516 | 34444 ft | 479 kts | 90° |
| 2026-05-08 06:32 | 52.24916 | 17.11960 | 33694 ft | 480 kts | 90° |
| 2026-05-08 06:32 | 52.24954 | 17.17408 | 32955 ft | 480 kts | 89° |
| 2026-05-08 06:32 | 52.24989 | 17.22843 | 32304 ft | 478 kts | 89° |
| 2026-05-08 06:32 | 52.25020 | 17.28160 | 31864 ft | 472 kts | 89° |
| 2026-05-08 06:33 | 52.25050 | 17.33494 | 31362 ft | 468 kts | 89° |
| 2026-05-08 06:33 | 52.25077 | 17.38771 | 30879 ft | 463 kts | 89° |
| 2026-05-08 06:33 | 52.25101 | 17.44009 | 30402 ft | 459 kts | 89° |
| 2026-05-08 06:33 | 52.25124 | 17.49195 | 29866 ft | 455 kts | 89° |
| 2026-05-08 06:34 | 52.25143 | 17.54339 | 29348 ft | 450 kts | 89° |
| 2026-05-08 06:34 | 52.25161 | 17.59422 | 28859 ft | 444 kts | 90° |
| 2026-05-08 06:34 | 52.25175 | 17.64445 | 28372 ft | 439 kts | 90° |
| 2026-05-08 06:34 | 52.25188 | 17.69429 | 27886 ft | 435 kts | 90° |
| 2026-05-08 06:35 | 52.25198 | 17.74280 | 27419 ft | 430 kts | 90° |
| 2026-05-08 06:35 | 52.25207 | 17.79150 | 26936 ft | 426 kts | 90° |
| 2026-05-08 06:35 | 52.25213 | 17.83966 | 26468 ft | 423 kts | 90° |
| 2026-05-08 06:35 | 52.25218 | 17.88754 | 26007 ft | 419 kts | 90° |
| 2026-05-08 06:36 | 52.25221 | 17.93504 | 25552 ft | 416 kts | 90° |
| 2026-05-08 06:36 | 52.25222 | 17.98202 | 25097 ft | 413 kts | 90° |
| 2026-05-08 06:36 | 52.25361 | 18.02811 | 24683 ft | 410 kts | 84° |
| 2026-05-08 06:36 | 52.25710 | 18.07405 | 24273 ft | 406 kts | 83° |
| 2026-05-08 06:37 | 52.26109 | 18.11951 | 23838 ft | 404 kts | 83° |
| 2026-05-08 06:37 | 52.26517 | 18.16482 | 23329 ft | 402 kts | 83° |
| 2026-05-08 06:37 | 52.26914 | 18.20979 | 22828 ft | 399 kts | 83° |
| 2026-05-08 06:37 | 52.27299 | 18.25456 | 22395 ft | 395 kts | 83° |
| 2026-05-08 06:38 | 52.27668 | 18.29881 | 21937 ft | 392 kts | 84° |
| 2026-05-08 06:38 | 52.28029 | 18.34280 | 21498 ft | 389 kts | 84° |
| 2026-05-08 06:38 | 52.28376 | 18.38583 | 21064 ft | 386 kts | 84° |
| 2026-05-08 06:38 | 52.28723 | 18.42909 | 20628 ft | 383 kts | 84° |
| 2026-05-08 06:39 | 52.29065 | 18.47216 | 20201 ft | 380 kts | 84° |
| 2026-05-08 06:39 | 52.29402 | 18.51482 | 19776 ft | 378 kts | 84° |
| 2026-05-08 06:39 | 52.29737 | 18.55735 | 19356 ft | 376 kts | 84° |
| 2026-05-08 06:39 | 52.30068 | 18.59959 | 18932 ft | 374 kts | 84° |
| 2026-05-08 06:40 | 52.30396 | 18.64165 | 18516 ft | 372 kts | 84° |
| 2026-05-08 06:40 | 52.30722 | 18.68355 | 18050 ft | 371 kts | 84° |
| 2026-05-08 06:40 | 52.31045 | 18.72535 | 17596 ft | 369 kts | 84° |
| 2026-05-08 06:40 | 52.31360 | 18.76627 | 17160 ft | 366 kts | 84° |
| 2026-05-08 06:41 | 52.31675 | 18.80739 | 16741 ft | 364 kts | 84° |
| 2026-05-08 06:41 | 52.31987 | 18.84830 | 16324 ft | 361 kts | 84° |
| 2026-05-08 06:41 | 52.32296 | 18.88891 | 15916 ft | 359 kts | 84° |
| 2026-05-08 06:41 | 52.32601 | 18.92931 | 15507 ft | 356 kts | 84° |
| 2026-05-08 06:42 | 52.32903 | 18.96946 | 15099 ft | 354 kts | 84° |
| 2026-05-08 06:42 | 52.33201 | 19.00934 | 14698 ft | 352 kts | 84° |
| 2026-05-08 06:42 | 52.33494 | 19.04866 | 14299 ft | 351 kts | 84° |
| 2026-05-08 06:42 | 52.33787 | 19.08819 | 13903 ft | 349 kts | 84° |
| 2026-05-08 06:43 | 52.34078 | 19.12748 | 13454 ft | 348 kts | 84° |
| 2026-05-08 06:43 | 52.34367 | 19.16671 | 13031 ft | 346 kts | 84° |
| 2026-05-08 06:43 | 52.34652 | 19.20562 | 12707 ft | 340 kts | 84° |
| 2026-05-08 06:43 | 52.34919 | 19.24371 | 12448 ft | 334 kts | 85° |
| 2026-05-08 06:44 | 52.35121 | 19.28125 | 12121 ft | 330 kts | 86° |
| 2026-05-08 06:44 | 52.35298 | 19.31861 | 11736 ft | 328 kts | 87° |
| 2026-05-08 06:44 | 52.35470 | 19.35579 | 11365 ft | 327 kts | 86° |
| 2026-05-08 06:44 | 52.35642 | 19.39272 | 10991 ft | 325 kts | 86° |
| 2026-05-08 06:45 | 52.35815 | 19.42945 | 10708 ft | 321 kts | 86° |
| 2026-05-08 06:45 | 52.35986 | 19.46527 | 10577 ft | 312 kts | 86° |
| 2026-05-08 06:45 | 52.36154 | 19.50025 | 10436 ft | 304 kts | 86° |
| 2026-05-08 06:45 | 52.36317 | 19.53433 | 10294 ft | 297 kts | 86° |
| 2026-05-08 06:46 | 52.36472 | 19.56712 | 10163 ft | 288 kts | 87° |
| 2026-05-08 06:46 | 52.36626 | 19.59953 | 9973 ft | 284 kts | 87° |
| 2026-05-08 06:46 | 52.36777 | 19.63171 | 9674 ft | 282 kts | 87° |
| 2026-05-08 06:46 | 52.36927 | 19.66367 | 9399 ft | 280 kts | 87° |
| 2026-05-08 06:47 | 52.37073 | 19.69498 | 9289 ft | 272 kts | 87° |
| 2026-05-08 06:47 | 52.37215 | 19.72559 | 9158 ft | 266 kts | 87° |
| 2026-05-08 06:47 | 52.37351 | 19.75531 | 9032 ft | 259 kts | 86° |
| 2026-05-08 06:47 | 52.37495 | 19.78428 | 8837 ft | 255 kts | 85° |
| 2026-05-08 06:48 | 52.37710 | 19.81302 | 8555 ft | 254 kts | 83° |
| 2026-05-08 06:48 | 52.37947 | 19.84164 | 8288 ft | 253 kts | 83° |
| 2026-05-08 06:48 | 52.38183 | 19.87017 | 8022 ft | 252 kts | 83° |
| 2026-05-08 06:48 | 52.38416 | 19.89864 | 7763 ft | 252 kts | 83° |
| 2026-05-08 06:49 | 52.38646 | 19.92700 | 7500 ft | 251 kts | 83° |
| 2026-05-08 06:49 | 52.38872 | 19.95531 | 7236 ft | 250 kts | 83° |
| 2026-05-08 06:49 | 52.39096 | 19.98350 | 6977 ft | 250 kts | 83° |
| 2026-05-08 06:49 | 52.39316 | 20.01131 | 6719 ft | 250 kts | 83° |
| 2026-05-08 06:50 | 52.39537 | 20.03947 | 6453 ft | 249 kts | 83° |
| 2026-05-08 06:50 | 52.39757 | 20.06764 | 6157 ft | 250 kts | 82° |
| 2026-05-08 06:50 | 52.39979 | 20.09603 | 5854 ft | 249 kts | 82° |
| 2026-05-08 06:50 | 52.40196 | 20.12394 | 5584 ft | 244 kts | 82° |
| 2026-05-08 06:51 | 52.40405 | 20.15109 | 5329 ft | 236 kts | 82° |
| 2026-05-08 06:51 | 52.40608 | 20.17737 | 5095 ft | 228 kts | 82° |
| 2026-05-08 06:51 | 52.40803 | 20.20244 | 4925 ft | 218 kts | 81° |
| 2026-05-08 06:51 | 52.41032 | 20.22654 | 4709 ft | 210 kts | 79° |
| 2026-05-08 06:52 | 52.41266 | 20.25002 | 4498 ft | 208 kts | 79° |
| 2026-05-08 06:52 | 52.41498 | 20.27342 | 4282 ft | 207 kts | 79° |
| 2026-05-08 06:52 | 52.41723 | 20.29638 | 4081 ft | 201 kts | 79° |
| 2026-05-08 06:52 | 52.41937 | 20.31831 | 3865 ft | 195 kts | 79° |
| 2026-05-08 06:53 | 52.42154 | 20.33984 | 3677 ft | 189 kts | 77° |
| 2026-05-08 06:53 | 52.42399 | 20.36104 | 3470 ft | 187 kts | 78° |
| 2026-05-08 06:53 | 52.42609 | 20.38183 | 3280 ft | 182 kts | 79° |
| 2026-05-08 06:53 | 52.42794 | 20.40177 | 3097 ft | 170 kts | 79° |
| 2026-05-08 06:54 | 52.42968 | 20.42068 | 2932 ft | 168 kts | 79° |
| 2026-05-08 06:54 | 52.43142 | 20.43953 | 2711 ft | 166 kts | 80° |
| 2026-05-08 06:54 | 52.43313 | 20.45809 | 2490 ft | 163 kts | 79° |
| 2026-05-08 06:54 | 52.43481 | 20.47631 | 2281 ft | 161 kts | 80° |
| 2026-05-08 06:55 | 52.43650 | 20.49442 | 2103 ft | 158 kts | 80° |
| 2026-05-08 06:55 | 52.43811 | 20.51196 | 1847 ft | 152 kts | 80° |
| 2026-05-08 06:55 | 52.43963 | 20.52831 | 1660 ft | 144 kts | 80° |
| 2026-05-08 06:55 | 52.44110 | 20.54413 | 1477 ft | 138 kts | 80° |
| 2026-05-08 06:56 | 52.44256 | 20.55977 | 1302 ft | 141 kts | 79° |
| 2026-05-08 06:56 | 52.44403 | 20.57564 | 1129 ft | 141 kts | 79° |
| 2026-05-08 06:56 | 52.44550 | 20.59134 | 939 ft | 137 kts | 78° |
| 2026-05-08 06:56 | 52.44696 | 20.60692 | 739 ft | 138 kts | 78° |
| 2026-05-08 06:57 | 52.44841 | 20.62247 | 555 ft | 137 kts | 78° |
| 2026-05-08 06:57 | 52.44984 | 20.63771 | 346 ft | 130 kts | 77° |
| 2026-05-08 06:57 | 52.45104 | 20.64992 | 336 ft | 78 kts | 81° |
| 2026-05-08 06:57 | 52.45154 | 20.65520 | 334 ft | 18 kts | 82° |
| 2026-05-08 06:58 | 52.45174 | 20.65737 | 339 ft | 17 kts | 81° |
| 2026-05-08 06:58 | 52.45189 | 20.65898 | 338 ft | 13 kts | 82° |
| 2026-05-08 06:58 | 52.45136 | 20.66005 | 335 ft | 13 kts | 162° |
| 2026-05-08 06:58 | 52.45053 | 20.66052 | 335 ft | 13 kts | 160° |
| 2026-05-08 06:59 | 52.44971 | 20.66100 | 335 ft | 12 kts | 160° |
| 2026-05-08 06:59 | 52.44898 | 20.66137 | 337 ft | 10 kts | 182° |
| 2026-05-08 06:59 | 52.44864 | 20.66048 | 334 ft | 10 kts | 259° |
| 2026-05-08 06:59 | 52.44852 | 20.65940 | 335 ft | 9 kts | 260° |
| 2026-05-08 07:00 | 52.44843 | 20.65836 | 337 ft | 9 kts | 262° |
| 2026-05-08 07:00 | 52.44834 | 20.65734 | 334 ft | 9 kts | 261° |
| 2026-05-08 07:00 | 52.44826 | 20.65634 | 337 ft | 9 kts | 263° |
| 2026-05-08 07:00 | 52.44818 | 20.65539 | 336 ft | 8 kts | 261° |
| 2026-05-08 07:01 | 52.44809 | 20.65445 | 335 ft | 8 kts | 261° |
| 2026-05-08 07:01 | 52.44800 | 20.65355 | 336 ft | 8 kts | 261° |
| 2026-05-08 07:01 | 52.44792 | 20.65267 | 333 ft | 8 kts | 262° |
| 2026-05-08 07:01 | 52.44784 | 20.65182 | 337 ft | 7 kts | 261° |
| 2026-05-08 07:02 | 52.44776 | 20.65100 | 335 ft | 7 kts | 261° |
| 2026-05-08 07:02 | 52.44769 | 20.65019 | 335 ft | 7 kts | 262° |
| 2026-05-08 07:02 | 52.44762 | 20.64939 | 334 ft | 7 kts | 262° |
| 2026-05-08 07:02 | 52.44751 | 20.64899 | 337 ft | 4 kts | 226° |
| 2026-05-08 07:03 | 52.44727 | 20.64875 | 336 ft | 4 kts | 206° |
| 2026-05-08 07:03 | 52.44712 | 20.64863 | 336 ft | 1 kts | 206° |
| 2026-05-08 07:03 | 52.44710 | 20.64861 | 336 ft | 0 kts | 206° |